Time;durP1;ratioP1;P1;durP2;ratioP2;P2;SDS_P1;SDS_P2;PMS_P1;PMS_P2;Temp;Humidity;BMP_temperature;BMP_pressure;BME280_temperature;BME280_humidity;BME280_pressure;Samples;Min_cycle;Max_cycle;Signal;HPM_P1;HPM_P2
2024/02/26 00:01:32;;;;;;;5.78;1.70;;;4.80;99.90;;;;;;4970391;28;20033;-81
2024/02/26 00:03:59;;;;;;;6.05;1.65;;;4.80;99.90;;;;;;4968654;28;20031;-79
2024/02/26 00:06:25;;;;;;;4.28;1.65;;;4.80;99.90;;;;;;4983989;28;20080;-80
2024/02/26 00:08:50;;;;;;;2.60;1.48;;;4.80;99.90;;;;;;4982334;28;20181;-79
2024/02/26 00:11:16;;;;;;;3.30;1.23;;;4.90;99.90;;;;;;4981856;28;20041;-80
2024/02/26 00:13:41;;;;;;;3.80;1.55;;;4.90;99.90;;;;;;4967103;28;22539;-79
2024/02/26 00:16:10;;;;;;;2.70;1.17;;;5.00;99.90;;;;;;4973102;28;20036;-80
2024/02/26 00:18:35;;;;;;;3.60;1.70;;;5.10;99.90;;;;;;4952722;28;20056;-80
2024/02/26 00:21:04;;;;;;;1.65;1.23;;;5.10;99.90;;;;;;4969738;28;20030;-80
2024/02/26 00:23:30;;;;;;;3.88;1.50;;;5.00;99.90;;;;;;4966983;28;20029;-81
2024/02/26 00:25:56;;;;;;;3.50;1.50;;;5.00;99.90;;;;;;4995297;28;20037;-80
2024/02/26 00:28:21;;;;;;;2.60;1.30;;;5.10;99.90;;;;;;4962046;28;20038;-80
2024/02/26 00:30:47;;;;;;;2.85;2.03;;;5.10;99.90;;;;;;4983592;28;20415;-80
2024/02/26 00:33:16;;;;;;;4.40;1.83;;;5.00;99.90;;;;;;4964627;28;20480;-80
2024/02/26 00:35:42;;;;;;;2.17;1.50;;;4.90;99.90;;;;;;5000802;28;20076;-82
2024/02/26 00:38:08;;;;;;;2.85;1.20;;;4.90;99.90;;;;;;4962687;28;20041;-80
2024/02/26 00:40:34;;;;;;;1.92;1.30;;;4.90;99.90;;;;;;4982318;28;20034;-80
2024/02/26 00:42:59;;;;;;;2.67;1.00;;;4.90;99.90;;;;;;4997137;28;20034;-80
2024/02/26 00:45:25;;;;;;;2.15;1.30;;;4.80;99.90;;;;;;4995675;28;20054;-80
2024/02/26 00:47:50;;;;;;;2.28;1.25;;;4.80;99.90;;;;;;4984155;28;20492;-79
2024/02/26 00:50:16;;;;;;;3.38;1.23;;;4.80;99.90;;;;;;4983689;28;20034;-80
2024/02/26 00:52:42;;;;;;;2.17;1.33;;;4.70;99.90;;;;;;4980727;28;20140;-79
2024/02/26 00:55:08;;;;;;;3.75;1.50;;;4.70;99.90;;;;;;4968794;28;20455;-79
2024/02/26 00:57:33;;;;;;;3.95;1.52;;;4.70;99.90;;;;;;4965267;28;20026;-79
2024/02/26 01:00:00;;;;;;;5.18;1.65;;;4.60;99.90;;;;;;4978693;28;20087;-79
2024/02/26 01:02:26;;;;;;;2.20;1.33;;;4.70;99.90;;;;;;4979898;28;20034;-80
2024/02/26 01:04:51;;;;;;;3.28;1.35;;;4.60;99.90;;;;;;4969803;28;20045;-79
2024/02/26 01:07:17;;;;;;;2.53;1.45;;;4.60;99.90;;;;;;4968069;28;20038;-80
2024/02/26 01:09:42;;;;;;;3.20;1.58;;;4.70;99.90;;;;;;4965633;28;20048;-79
2024/02/26 01:12:08;;;;;;;1.30;1.10;;;4.70;99.90;;;;;;4966192;28;20038;-79
2024/02/26 01:14:41;;;;;;;2.00;1.45;;;4.60;99.90;;;;;;4982019;28;20684;-79
2024/02/26 01:17:06;;;;;;;3.22;1.23;;;4.70;99.90;;;;;;4965996;28;20040;-79
2024/02/26 01:19:32;;;;;;;2.00;1.40;;;4.70;99.90;;;;;;4985868;28;20030;-90
2024/02/26 01:21:57;;;;;;;4.68;1.20;;;4.60;99.90;;;;;;4991900;28;20097;-91
2024/02/26 01:24:23;;;;;;;1.55;1.42;;;4.60;99.90;;;;;;4976846;28;20484;-90
2024/02/26 01:26:48;;;;;;;1.40;0.90;;;4.70;99.90;;;;;;4996506;28;20387;-94
2024/02/26 01:29:14;;;;;;;1.40;0.93;;;4.80;99.90;;;;;;5007508;28;20101;-92
2024/02/26 01:31:40;;;;;;;1.75;1.10;;;4.70;99.90;;;;;;4993293;28;20042;-87
2024/02/26 01:34:05;;;;;;;1.70;0.90;;;4.80;99.90;;;;;;4978623;28;20033;-93
2024/02/26 01:36:31;;;;;;;2.40;1.08;;;4.80;99.90;;;;;;4977335;28;20022;-79
2024/02/26 01:38:56;;;;;;;2.42;0.82;;;4.90;99.90;;;;;;4968716;28;20092;-80
2024/02/26 01:41:22;;;;;;;1.55;1.10;;;4.90;99.90;;;;;;4985399;28;20027;-79
2024/02/26 01:43:47;;;;;;;1.33;0.80;;;4.90;99.90;;;;;;4970785;28;20030;-80
2024/02/26 01:46:14;;;;;;;2.03;1.08;;;4.80;99.90;;;;;;4986640;28;20034;-80
2024/02/26 01:48:41;;;;;;;1.73;1.10;;;4.90;99.90;;;;;;4972752;28;20030;-80
2024/02/26 01:51:08;;;;;;;5.28;1.42;;;4.90;99.90;;;;;;4972970;28;20038;-80
2024/02/26 01:53:34;;;;;;;2.33;1.35;;;4.90;99.90;;;;;;4972276;28;20049;-79
2024/02/26 01:55:59;;;;;;;1.88;1.30;;;4.80;99.90;;;;;;4973363;28;20400;-80
2024/02/26 01:58:25;;;;;;;1.80;1.10;;;4.80;99.90;;;;;;4987103;28;20472;-80
2024/02/26 02:00:50;;;;;;;1.65;0.90;;;4.90;99.90;;;;;;4987410;28;20038;-80
2024/02/26 02:03:16;;;;;;;2.83;1.30;;;4.80;99.90;;;;;;4983416;28;20030;-80
2024/02/26 02:05:42;;;;;;;2.08;1.10;;;4.90;99.90;;;;;;4974105;28;20041;-79
2024/02/26 02:08:09;;;;;;;2.25;1.20;;;4.80;99.90;;;;;;4984019;28;20030;-80
2024/02/26 02:10:34;;;;;;;1.63;0.93;;;4.80;99.90;;;;;;4968298;28;20026;-81
2024/02/26 02:13:00;;;;;;;1.10;1.00;;;4.80;99.90;;;;;;4998630;28;20042;-80
2024/02/26 02:15:25;;;;;;;3.53;1.42;;;4.80;99.90;;;;;;4972291;28;21187;-80
2024/02/26 02:17:51;;;;;;;2.20;2.00;;;4.70;99.90;;;;;;4987272;28;20030;-80
2024/02/26 02:20:17;;;;;;;2.10;0.90;;;4.70;99.90;;;;;;4968722;28;20144;-81
2024/02/26 02:22:46;;;;;;;2.42;1.23;;;4.70;99.90;;;;;;4969276;28;20035;-81
2024/02/26 02:25:12;;;;;;;2.47;1.38;;;4.70;99.90;;;;;;4984074;28;20448;-80
2024/02/26 02:27:37;;;;;;;5.47;1.58;;;4.70;99.90;;;;;;4984919;28;20033;-80
2024/02/26 02:30:03;;;;;;;2.00;1.67;;;4.70;99.90;;;;;;4985469;28;20606;-81
2024/02/26 02:32:29;;;;;;;3.03;1.60;;;4.70;99.90;;;;;;4969241;28;20034;-81
2024/02/26 02:34:55;;;;;;;2.50;1.23;;;4.80;99.90;;;;;;4998706;28;20087;-80
2024/02/26 02:37:20;;;;;;;2.10;1.35;;;4.80;99.90;;;;;;4969466;28;20034;-81
2024/02/26 02:39:46;;;;;;;2.22;1.25;;;4.80;99.90;;;;;;4983001;28;20649;-81
2024/02/26 02:42:12;;;;;;;3.50;1.70;;;4.80;99.90;;;;;;4997959;28;20570;-80
2024/02/26 02:44:37;;;;;;;2.10;1.42;;;4.80;99.90;;;;;;4983749;28;20066;-80
2024/02/26 02:47:03;;;;;;;2.15;1.52;;;4.80;99.90;;;;;;4975288;28;20041;-86
2024/02/26 02:49:29;;;;;;;2.17;1.45;;;4.80;99.90;;;;;;4979180;28;20041;-87
2024/02/26 02:51:57;;;;;;;2.30;1.83;;;4.80;99.90;;;;;;4971945;28;20088;-92
2024/02/26 02:54:23;;;;;;;4.47;1.73;;;4.80;99.90;;;;;;4982226;28;20022;-89
2024/02/26 02:56:48;;;;;;;2.42;1.60;;;4.90;99.90;;;;;;4979931;28;20157;-90
2024/02/26 02:59:14;;;;;;;2.28;1.48;;;4.80;99.90;;;;;;4984636;28;20030;-92
2024/02/26 03:01:40;;;;;;;1.60;1.33;;;4.70;99.90;;;;;;4974567;28;20042;-91
2024/02/26 03:04:05;;;;;;;2.35;1.88;;;4.80;99.90;;;;;;5010466;28;20045;-92
2024/02/26 03:06:31;;;;;;;3.25;1.73;;;4.90;99.90;;;;;;4999157;28;20018;-90
2024/02/26 03:08:56;;;;;;;1.63;1.40;;;4.80;99.90;;;;;;4992089;28;20031;-91
2024/02/26 03:11:22;;;;;;;2.35;1.48;;;4.90;99.90;;;;;;4975835;28;20093;-89
2024/02/26 03:13:48;;;;;;;2.50;1.30;;;4.80;99.90;;;;;;4996418;28;20172;-92
2024/02/26 03:16:13;;;;;;;3.92;1.33;;;4.80;99.90;;;;;;4991159;28;20049;-94
2024/02/26 03:18:42;;;;;;;2.35;1.63;;;4.70;99.90;;;;;;4976701;28;20061;-85
2024/02/26 03:21:07;;;;;;;2.83;1.80;;;4.70;99.90;;;;;;4986355;28;20384;-88
2024/02/26 03:23:36;;;;;;;3.42;1.70;;;4.80;99.90;;;;;;4975407;28;20029;-83
2024/02/26 03:26:04;;;;;;;3.83;1.85;;;4.70;99.90;;;;;;4963899;28;20037;-87
2024/02/26 03:28:32;;;;;;;3.85;2.30;;;4.70;99.90;;;;;;5002513;28;20041;-87
2024/02/26 03:30:58;;;;;;;2.58;1.67;;;4.60;99.90;;;;;;4987198;28;20041;-87
2024/02/26 03:33:24;;;;;;;2.95;1.98;;;4.60;99.90;;;;;;5004493;28;20555;-84
2024/02/26 03:35:50;;;;;;;3.72;2.13;;;4.60;99.90;;;;;;5002660;28;20057;-90
2024/02/26 03:38:15;;;;;;;3.25;2.17;;;4.60;99.90;;;;;;4985016;28;23311;-92
2024/02/26 03:40:41;;;;;;;3.30;2.20;;;4.60;99.90;;;;;;4975847;28;20030;-89
2024/02/26 03:43:07;;;;;;;3.17;2.15;;;4.70;99.90;;;;;;4973206;28;20042;-90
2024/02/26 03:45:33;;;;;;;3.88;2.03;;;4.60;99.90;;;;;;4977581;28;20449;-89
2024/02/26 03:47:58;;;;;;;3.45;2.20;;;4.50;99.90;;;;;;4977280;28;20057;-88
2024/02/26 03:50:24;;;;;;;2.53;1.92;;;4.50;99.90;;;;;;4972764;28;20118;-87
2024/02/26 03:52:49;;;;;;;3.17;1.98;;;4.60;99.90;;;;;;4990082;28;20057;-90
2024/02/26 03:55:15;;;;;;;2.53;2.08;;;4.50;99.90;;;;;;4986457;28;20038;-90
2024/02/26 03:57:41;;;;;;;4.07;1.70;;;4.50;99.90;;;;;;4966641;28;20792;-79
2024/02/26 04:00:07;;;;;;;2.72;1.90;;;4.50;99.90;;;;;;4968036;28;20044;-80
2024/02/26 04:02:32;;;;;;;2.70;2.28;;;4.50;99.90;;;;;;4966572;28;20488;-79
2024/02/26 04:04:59;;;;;;;3.05;2.22;;;4.50;99.90;;;;;;4964835;28;20045;-80
2024/02/26 04:07:24;;;;;;;3.35;2.38;;;4.50;99.90;;;;;;4987018;28;20030;-79
2024/02/26 04:09:50;;;;;;;2.90;2.20;;;4.50;99.90;;;;;;4969063;28;20061;-79
2024/02/26 04:12:15;;;;;;;5.45;2.65;;;4.50;99.90;;;;;;4983147;28;20041;-80
2024/02/26 04:14:41;;;;;;;5.15;2.50;;;4.40;99.90;;;;;;4982490;28;20056;-80
2024/02/26 04:17:07;;;;;;;3.35;2.33;;;4.40;99.90;;;;;;4964050;28;20142;-79
2024/02/26 04:19:32;;;;;;;2.63;2.33;;;4.40;99.90;;;;;;4981354;28;20431;-80
2024/02/26 04:21:58;;;;;;;4.03;2.08;;;4.50;99.90;;;;;;4980574;28;20056;-80
2024/02/26 04:24:23;;;;;;;3.67;2.70;;;4.40;99.90;;;;;;4994996;28;20080;-79
2024/02/26 04:26:49;;;;;;;5.18;2.53;;;4.40;99.90;;;;;;4965801;28;20038;-79
2024/02/26 04:29:15;;;;;;;2.15;1.90;;;4.40;99.90;;;;;;4984160;28;20029;-79
2024/02/26 04:31:42;;;;;;;3.90;2.47;;;4.40;99.90;;;;;;4982467;28;20569;-80
2024/02/26 04:34:08;;;;;;;4.60;2.50;;;4.40;99.90;;;;;;4981093;28;20506;-79
2024/02/26 04:36:33;;;;;;;4.72;2.40;;;4.50;99.90;;;;;;4968766;28;20058;-80
2024/02/26 04:38:59;;;;;;;3.47;2.30;;;4.40;99.90;;;;;;4979865;28;20503;-80
2024/02/26 04:41:24;;;;;;;4.40;2.55;;;4.40;99.90;;;;;;4980918;28;20479;-80
2024/02/26 04:43:50;;;;;;;3.90;2.53;;;4.40;99.90;;;;;;4970265;28;20076;-80
2024/02/26 04:46:15;;;;;;;2.65;2.30;;;4.40;99.90;;;;;;4967282;28;20033;-80
2024/02/26 04:48:46;;;;;;;4.30;2.50;;;4.40;99.90;;;;;;4962373;28;20030;-79
2024/02/26 04:51:12;;;;;;;3.05;2.30;;;4.40;99.90;;;;;;4993690;28;20030;-80
2024/02/26 04:53:37;;;;;;;3.03;2.67;;;4.50;99.90;;;;;;4982728;28;20484;-80
2024/02/26 04:56:03;;;;;;;3.05;2.72;;;4.40;99.90;;;;;;4986722;28;20623;-80
2024/02/26 04:58:29;;;;;;;3.30;2.40;;;4.40;99.90;;;;;;4972909;28;20037;-80
2024/02/26 05:00:56;;;;;;;3.58;2.63;;;4.40;99.90;;;;;;4968048;28;20046;-80
2024/02/26 05:03:22;;;;;;;4.13;3.05;;;4.40;99.90;;;;;;4973014;28;20108;-80
2024/02/26 05:05:47;;;;;;;3.13;2.38;;;4.40;99.90;;;;;;4975153;28;20451;-81
2024/02/26 05:08:13;;;;;;;2.60;2.40;;;4.40;99.90;;;;;;4987947;28;20110;-89
2024/02/26 05:10:41;;;;;;;3.17;2.47;;;4.40;99.90;;;;;;5005663;28;20080;-83
2024/02/26 05:13:07;;;;;;;5.43;2.63;;;4.40;99.90;;;;;;4993040;28;20038;-87
2024/02/26 05:15:32;;;;;;;3.70;2.45;;;4.40;99.90;;;;;;5004209;28;20525;-91
2024/02/26 05:17:58;;;;;;;4.68;3.10;;;4.40;99.90;;;;;;4990563;28;20030;-90
2024/02/26 05:20:23;;;;;;;3.78;3.13;;;4.40;99.90;;;;;;4992510;28;20038;-90
2024/02/26 05:22:50;;;;;;;3.40;2.40;;;4.40;99.90;;;;;;4978149;28;20101;-89
2024/02/26 05:25:16;;;;;;;4.43;2.90;;;4.40;99.90;;;;;;5004967;28;20042;-88
2024/02/26 05:27:42;;;;;;;5.57;2.78;;;4.40;99.90;;;;;;4993071;28;20064;-91
2024/02/26 05:30:08;;;;;;;3.75;3.17;;;4.40;99.90;;;;;;4979658;28;20069;-83
2024/02/26 05:32:33;;;;;;;4.95;3.03;;;4.40;99.90;;;;;;4979783;28;20077;-87
2024/02/26 05:35:06;;;;;;;3.75;2.53;;;4.40;99.90;;;;;;4993389;28;20034;-87
2024/02/26 05:37:31;;;;;;;4.95;3.40;;;4.40;99.90;;;;;;4994994;28;20472;-89
2024/02/26 05:39:58;;;;;;;5.25;3.47;;;4.40;99.90;;;;;;4982361;28;20060;-89
2024/02/26 05:42:23;;;;;;;3.92;2.70;;;4.40;99.90;;;;;;4984070;28;20048;-86
2024/02/26 05:44:49;;;;;;;6.35;3.50;;;4.40;99.90;;;;;;4999408;28;20022;-88
2024/02/26 05:47:15;;;;;;;5.75;2.80;;;4.40;99.90;;;;;;4994398;28;20065;-84
2024/02/26 05:49:41;;;;;;;3.85;2.40;;;4.40;99.90;;;;;;5000160;28;20042;-86
2024/02/26 05:52:07;;;;;;;4.10;2.47;;;4.40;99.90;;;;;;4981734;28;20030;-87
2024/02/26 05:54:32;;;;;;;4.43;2.83;;;4.40;99.90;;;;;;4996955;28;20089;-92
2024/02/26 05:56:58;;;;;;;7.93;2.95;;;4.40;99.90;;;;;;4973094;28;20555;-87
2024/02/26 05:59:24;;;;;;;3.47;2.60;;;4.40;99.90;;;;;;4979079;28;20141;-85
2024/02/26 06:01:50;;;;;;;2.47;2.28;;;4.30;99.90;;;;;;4984182;28;20034;-88
2024/02/26 06:04:17;;;;;;;4.22;2.65;;;4.20;99.90;;;;;;4987247;28;20122;-89
2024/02/26 06:06:45;;;;;;;3.92;3.00;;;4.40;99.90;;;;;;5014605;28;20060;-87
2024/02/26 06:09:11;;;;;;;3.20;2.65;;;4.40;99.90;;;;;;4997658;28;20030;-88
2024/02/26 06:11:37;;;;;;;3.95;2.50;;;4.40;99.90;;;;;;5006102;28;20030;-90
2024/02/26 06:14:02;;;;;;;3.35;2.53;;;4.30;99.90;;;;;;4968152;28;20046;-87
2024/02/26 06:16:28;;;;;;;3.17;2.50;;;4.30;99.90;;;;;;4997409;28;20053;-89
2024/02/26 06:18:54;;;;;;;4.93;2.65;;;4.30;99.90;;;;;;5004157;28;20034;-85
2024/02/26 06:21:19;;;;;;;3.55;2.65;;;4.30;99.90;;;;;;4978844;28;20051;-87
2024/02/26 06:23:45;;;;;;;4.20;2.67;;;4.40;99.90;;;;;;4993493;28;20033;-89
2024/02/26 06:26:11;;;;;;;5.10;3.10;;;4.40;99.90;;;;;;4981153;28;20053;-89
2024/02/26 06:28:40;;;;;;;3.42;2.38;;;4.40;99.90;;;;;;5001360;28;20042;-87
2024/02/26 06:31:06;;;;;;;5.78;2.72;;;4.40;99.90;;;;;;4995552;28;20094;-91
2024/02/26 06:33:32;;;;;;;5.40;2.65;;;4.30;99.90;;;;;;4976662;28;20034;-91
2024/02/26 06:35:57;;;;;;;3.65;2.60;;;4.40;99.90;;;;;;4968182;28;20049;-87
2024/02/26 06:38:23;;;;;;;4.82;3.05;;;4.40;99.90;;;;;;4984188;28;20096;-87
2024/02/26 06:40:52;;;;;;;3.33;2.88;;;4.40;99.90;;;;;;4977203;28;20030;-83
2024/02/26 06:43:20;;;;;;;4.75;3.10;;;4.30;99.90;;;;;;4987969;28;20117;-89
2024/02/26 06:45:46;;;;;;;4.10;2.88;;;4.40;99.90;;;;;;4975315;28;20497;-89
2024/02/26 06:48:11;;;;;;;4.32;2.65;;;4.40;99.90;;;;;;5001244;28;20088;-89
2024/02/26 06:50:37;;;;;;;4.40;2.65;;;4.40;99.90;;;;;;4990053;28;20042;-90
2024/02/26 06:53:03;;;;;;;4.68;2.90;;;4.40;99.90;;;;;;5000973;28;20586;-86
2024/02/26 06:55:28;;;;;;;4.00;2.53;;;4.40;99.90;;;;;;4966701;28;20036;-88
2024/02/26 06:57:54;;;;;;;6.35;2.83;;;4.50;99.90;;;;;;4969711;28;20088;-85
2024/02/26 07:00:20;;;;;;;4.03;2.60;;;4.50;99.90;;;;;;4984159;28;20117;-84
2024/02/26 07:02:45;;;;;;;5.07;2.85;;;4.40;99.90;;;;;;4984491;28;20034;-87
2024/02/26 07:05:11;;;;;;;3.55;2.80;;;4.40;99.90;;;;;;4985761;28;20038;-87
2024/02/26 07:07:36;;;;;;;3.92;2.83;;;4.40;99.90;;;;;;4988218;28;20118;-87
2024/02/26 07:10:03;;;;;;;5.65;2.83;;;4.40;99.90;;;;;;4973383;28;20033;-89
2024/02/26 07:12:30;;;;;;;3.53;2.40;;;4.50;99.90;;;;;;4954427;28;20045;-86
2024/02/26 07:14:55;;;;;;;4.30;2.63;;;4.50;99.90;;;;;;4993404;28;20121;-88
2024/02/26 07:17:21;;;;;;;3.65;2.90;;;4.50;99.90;;;;;;4970513;28;20106;-88
2024/02/26 07:19:49;;;;;;;4.28;3.00;;;4.50;99.90;;;;;;5002120;28;20037;-90
2024/02/26 07:22:15;;;;;;;3.17;2.75;;;4.50;99.90;;;;;;4982051;28;20487;-88
2024/02/26 07:24:41;;;;;;;5.45;2.90;;;4.40;99.90;;;;;;4968908;28;20096;-89
2024/02/26 07:27:06;;;;;;;3.53;2.95;;;4.60;99.90;;;;;;4969544;28;20037;-87
2024/02/26 07:29:35;;;;;;;4.45;3.67;;;4.60;99.90;;;;;;4962993;28;20105;-80
2024/02/26 07:32:03;;;;;;;6.35;4.25;;;4.60;99.90;;;;;;4965552;28;20037;-81
2024/02/26 07:34:29;;;;;;;5.30;3.03;;;4.50;99.90;;;;;;4982464;28;20101;-80
2024/02/26 07:36:56;;;;;;;4.70;3.28;;;4.60;99.90;;;;;;4968471;28;20380;-81
2024/02/26 07:39:22;;;;;;;5.10;3.17;;;4.60;99.90;;;;;;4999297;28;20036;-80
2024/02/26 07:41:49;;;;;;;6.13;3.40;;;4.60;99.90;;;;;;4985170;28;20038;-81
2024/02/26 07:44:15;;;;;;;6.68;3.80;;;4.60;99.90;;;;;;4958234;28;20038;-81
2024/02/26 07:46:41;;;;;;;5.05;3.33;;;4.70;99.90;;;;;;4966721;28;20065;-80
2024/02/26 07:49:08;;;;;;;3.92;3.53;;;4.70;99.90;;;;;;4967343;28;20105;-82
2024/02/26 07:51:34;;;;;;;4.90;3.28;;;4.70;99.90;;;;;;4969164;28;20153;-80
2024/02/26 07:54:00;;;;;;;5.45;3.72;;;4.70;99.90;;;;;;4965708;28;20038;-81
2024/02/26 07:56:26;;;;;;;4.80;3.47;;;4.70;99.90;;;;;;4981803;28;20538;-82
2024/02/26 07:58:51;;;;;;;9.95;3.80;;;4.80;99.90;;;;;;4981711;28;20502;-81
2024/02/26 08:01:17;;;;;;;5.72;4.10;;;4.80;99.90;;;;;;4979592;28;20042;-81
2024/02/26 08:03:42;;;;;;;6.90;3.70;;;4.80;99.90;;;;;;4967690;28;20041;-82
2024/02/26 08:06:08;;;;;;;4.65;3.80;;;4.80;99.90;;;;;;4978439;28;20484;-81
2024/02/26 08:08:34;;;;;;;5.80;3.92;;;4.80;99.90;;;;;;4960752;28;20053;-81
2024/02/26 08:11:00;;;;;;;6.97;3.83;;;4.80;99.90;;;;;;4978764;28;20373;-81
2024/02/26 08:13:55;;;;;;;3.90;3.45;;;4.80;99.90;;;;;;4982761;28;20049;-81
2024/02/26 08:16:21;;;;;;;4.97;3.78;;;4.90;99.90;;;;;;4954888;28;20054;-81
2024/02/26 08:18:46;;;;;;;5.32;4.05;;;4.90;99.90;;;;;;4940436;28;20062;-81
2024/02/26 08:21:12;;;;;;;6.35;3.65;;;4.90;99.90;;;;;;4953405;28;20034;-81
2024/02/26 08:23:39;;;;;;;5.25;3.88;;;4.90;99.90;;;;;;4969544;28;20038;-88
2024/02/26 08:26:07;;;;;;;7.25;4.15;;;4.90;99.90;;;;;;4983827;28;20030;-86
2024/02/26 08:28:36;;;;;;;5.28;3.80;;;4.90;99.90;;;;;;4963051;28;20495;-88
2024/02/26 08:31:02;;;;;;;5.75;4.07;;;4.90;99.90;;;;;;4972744;28;20034;-87
2024/02/26 08:33:28;;;;;;;5.40;3.90;;;5.00;99.90;;;;;;4997817;28;20034;-87
2024/02/26 08:35:53;;;;;;;4.65;4.13;;;5.00;99.90;;;;;;4967796;28;20061;-87
2024/02/26 08:38:19;;;;;;;6.80;3.90;;;5.00;99.90;;;;;;4964062;28;20068;-89
2024/02/26 08:40:45;;;;;;;6.15;4.00;;;5.00;99.90;;;;;;4992753;28;20046;-87
2024/02/26 08:43:10;;;;;;;5.75;3.80;;;5.10;99.90;;;;;;4966715;28;20116;-88
2024/02/26 08:45:37;;;;;;;5.25;4.00;;;5.10;99.90;;;;;;4982348;28;20050;-87
2024/02/26 08:48:02;;;;;;;5.03;3.90;;;5.10;99.90;;;;;;4986304;28;20038;-88
2024/02/26 08:50:28;;;;;;;6.60;4.15;;;5.20;99.90;;;;;;4980540;28;20554;-89
2024/02/26 08:52:53;;;;;;;5.57;4.60;;;5.30;99.90;;;;;;4983665;28;20117;-87
2024/02/26 08:55:19;;;;;;;6.18;4.05;;;5.30;99.90;;;;;;4988603;28;20487;-88
2024/02/26 08:57:45;;;;;;;6.18;4.10;;;5.30;99.90;;;;;;4977993;28;20594;-87
2024/02/26 09:00:11;;;;;;;8.52;4.20;;;5.40;99.90;;;;;;4974534;28;20112;-87
2024/02/26 09:02:38;;;;;;;7.50;4.07;;;5.40;99.90;;;;;;4966051;28;20068;-86
2024/02/26 09:05:05;;;;;;;7.88;4.57;;;5.40;99.90;;;;;;4984588;28;20555;-86
2024/02/26 09:07:31;;;;;;;5.18;3.72;;;5.50;99.90;;;;;;4985283;28;20480;-87
2024/02/26 09:09:56;;;;;;;7.13;4.00;;;5.50;99.90;;;;;;4971794;28;20065;-87
2024/02/26 09:12:22;;;;;;;7.32;4.68;;;5.50;99.90;;;;;;4984679;28;20045;-87
2024/02/26 09:14:48;;;;;;;7.95;4.65;;;5.50;99.90;;;;;;4984876;28;20117;-85
2024/02/26 09:17:14;;;;;;;10.05;4.78;;;5.50;99.90;;;;;;4969760;28;20034;-84
2024/02/26 09:19:41;;;;;;;6.03;4.30;;;5.60;99.90;;;;;;4968500;28;20045;-87
2024/02/26 09:22:06;;;;;;;6.15;4.53;;;5.60;99.90;;;;;;4999424;28;20065;-86
2024/02/26 09:24:32;;;;;;;5.78;4.45;;;5.60;99.90;;;;;;4985423;28;20495;-82
2024/02/26 09:26:58;;;;;;;5.47;4.50;;;5.60;99.90;;;;;;4972360;28;20046;-86
2024/02/26 09:29:23;;;;;;;5.25;4.38;;;5.60;99.90;;;;;;4970046;28;20029;-86
2024/02/26 09:31:49;;;;;;;5.97;4.63;;;5.60;99.90;;;;;;4986814;28;20041;-87
2024/02/26 09:34:14;;;;;;;7.32;4.82;;;5.60;99.90;;;;;;4981722;28;20403;-84
2024/02/26 09:36:40;;;;;;;7.30;5.15;;;5.60;99.90;;;;;;4966979;28;20480;-86
2024/02/26 09:39:08;;;;;;;8.30;4.90;;;5.60;99.90;;;;;;4976835;28;20033;-86
2024/02/26 09:41:34;;;;;;;6.72;4.80;;;5.70;99.90;;;;;;4986525;28;20507;-87
2024/02/26 09:43:59;;;;;;;4.45;4.00;;;5.60;99.90;;;;;;4973086;28;20042;-86
2024/02/26 09:46:26;;;;;;;6.78;5.13;;;5.70;99.90;;;;;;4967907;28;20049;-86
2024/02/26 09:48:53;;;;;;;8.02;5.45;;;5.70;99.90;;;;;;4973847;28;20775;-86
2024/02/26 09:51:19;;;;;;;5.35;4.03;;;5.70;99.90;;;;;;4988532;28;20155;-85
2024/02/26 09:53:46;;;;;;;8.10;5.38;;;5.70;99.90;;;;;;4971666;28;20578;-86
2024/02/26 09:56:13;;;;;;;8.77;5.05;;;5.60;99.90;;;;;;4971496;28;20030;-85
2024/02/26 09:58:39;;;;;;;8.00;5.07;;;5.70;99.90;;;;;;4972182;28;20058;-86
2024/02/26 10:01:04;;;;;;;9.68;5.10;;;5.70;99.90;;;;;;5001190;28;20037;-86
2024/02/26 10:03:37;;;;;;;6.70;4.72;;;5.70;99.90;;;;;;4990570;28;20045;-87
2024/02/26 10:06:05;;;;;;;7.32;5.50;;;5.70;99.90;;;;;;4973697;28;20519;-83
2024/02/26 10:08:31;;;;;;;8.88;4.90;;;5.80;99.90;;;;;;4989102;28;20044;-87
2024/02/26 10:10:57;;;;;;;7.82;5.28;;;5.80;99.90;;;;;;4983896;28;20038;-86
2024/02/26 10:13:23;;;;;;;10.43;4.97;;;5.80;99.90;;;;;;4963903;28;20527;-87
2024/02/26 10:15:49;;;;;;;6.30;4.63;;;5.80;99.90;;;;;;4982239;28;20045;-85
2024/02/26 10:18:15;;;;;;;9.07;4.55;;;5.90;99.90;;;;;;4973552;28;20041;-86
2024/02/26 10:20:40;;;;;;;7.20;5.63;;;5.90;99.90;;;;;;4974055;28;20468;-86
2024/02/26 10:23:06;;;;;;;11.32;5.80;;;5.90;99.90;;;;;;4966339;28;20144;-81
2024/02/26 10:25:32;;;;;;;9.98;5.68;;;6.00;99.90;;;;;;4973563;28;20462;-81
2024/02/26 10:28:03;;;;;;;9.60;6.05;;;6.00;99.90;;;;;;4967638;28;20041;-81
2024/02/26 10:30:30;;;;;;;8.75;5.72;;;6.10;99.90;;;;;;4990662;28;20030;-80
2024/02/26 10:32:55;;;;;;;9.35;5.43;;;6.10;99.90;;;;;;4968656;28;20053;-80
2024/02/26 10:35:21;;;;;;;12.02;5.95;;;6.10;99.90;;;;;;4981165;28;20030;-81
2024/02/26 10:37:49;;;;;;;8.43;5.88;;;6.10;99.90;;;;;;4969135;28;20060;-80
2024/02/26 10:40:14;;;;;;;8.40;6.65;;;6.30;99.90;;;;;;4969263;28;20084;-81
2024/02/26 10:42:41;;;;;;;9.80;6.60;;;6.30;99.90;;;;;;4982533;28;20488;-81
2024/02/26 10:45:07;;;;;;;6.90;4.82;;;6.40;99.90;;;;;;4964070;28;20057;-81
2024/02/26 10:47:37;;;;;;;11.95;6.50;;;6.30;99.90;;;;;;4971694;28;20040;-80
2024/02/26 10:50:04;;;;;;;8.38;6.07;;;6.40;99.90;;;;;;4967271;28;20037;-81
2024/02/26 10:52:36;;;;;;;9.77;6.25;;;6.40;99.90;;;;;;4965776;28;20156;-82
2024/02/26 10:55:02;;;;;;;7.03;5.22;;;6.50;99.90;;;;;;4961808;28;20027;-80
2024/02/26 10:57:37;;;;;;;10.00;6.40;;;6.50;99.90;;;;;;4964812;28;20667;-81
2024/02/26 11:00:04;;;;;;;9.60;6.05;;;6.60;99.90;;;;;;4969244;28;20077;-85
2024/02/26 11:02:34;;;;;;;10.07;6.13;;;6.60;99.90;;;;;;4968761;28;20373;-86
2024/02/26 11:05:02;;;;;;;7.82;5.95;;;6.60;99.90;;;;;;4985297;28;20121;-85
2024/02/26 11:07:28;;;;;;;8.00;6.10;;;6.60;99.90;;;;;;4962822;28;20034;-86
2024/02/26 11:09:53;;;;;;;8.13;5.78;;;6.70;99.90;;;;;;4972846;28;20030;-88
2024/02/26 11:12:19;;;;;;;10.38;6.15;;;6.70;99.90;;;;;;4982663;28;20042;-87
2024/02/26 11:14:46;;;;;;;8.05;5.72;;;6.70;99.90;;;;;;4971424;28;20084;-85
2024/02/26 11:17:11;;;;;;;10.50;7.00;;;6.70;99.90;;;;;;4969097;28;20685;-82
2024/02/26 11:19:37;;;;;;;13.48;6.97;;;6.70;99.90;;;;;;4986020;28;20030;-86
2024/02/26 11:22:03;;;;;;;10.23;6.65;;;6.70;99.90;;;;;;4971022;28;20084;-87
2024/02/26 11:24:28;;;;;;;12.82;7.47;;;6.80;99.90;;;;;;4967063;28;20065;-86
2024/02/26 11:26:58;;;;;;;10.05;7.15;;;6.80;99.90;;;;;;4969723;28;20029;-87
2024/02/26 11:29:25;;;;;;;12.57;7.80;;;6.90;99.90;;;;;;4973366;28;20026;-87
2024/02/26 11:31:51;;;;;;;9.57;6.20;;;6.90;99.90;;;;;;4986159;28;20098;-88
2024/02/26 11:34:21;;;;;;;11.95;7.55;;;7.00;99.90;;;;;;4765812;28;10001156;-86
2024/02/26 11:36:48;;;;;;;12.65;7.80;;;7.10;99.90;;;;;;4984242;28;20252;-87
2024/02/26 11:39:16;;;;;;;16.02;8.15;;;7.10;99.90;;;;;;4967305;28;20109;-87
2024/02/26 11:41:42;;;;;;;12.90;7.47;;;7.20;99.90;;;;;;4972886;28;20038;-86
2024/02/26 11:44:08;;;;;;;12.35;8.93;;;7.40;99.90;;;;;;4982075;28;20177;-87
2024/02/26 11:46:40;;;;;;;14.05;9.40;;;7.30;99.90;;;;;;4985842;28;20704;-87
2024/02/26 11:49:39;;;;;;;13.30;8.05;;;7.40;99.90;;;;;;4983728;28;20092;-84
2024/02/26 11:52:08;;;;;;;8.90;8.00;;;7.50;99.90;;;;;;4973021;28;20057;-87
2024/02/26 11:54:49;;;;;;;10.45;7.97;;;7.70;99.90;;;;;;4967113;28;20038;-86
2024/02/26 11:57:21;;;;;;;12.57;8.25;;;7.80;99.90;;;;;;4983903;28;20038;-87
2024/02/26 11:59:47;;;;;;;14.77;9.57;;;7.90;99.90;;;;;;4996137;28;20034;-89
2024/02/26 12:02:29;;;;;;;11.10;8.95;;;8.00;99.90;;;;;;4984204;28;20045;-85
2024/02/26 12:04:55;;;;;;;11.93;8.27;;;7.90;99.90;;;;;;4994561;28;20049;-84
2024/02/26 12:07:20;;;;;;;9.75;8.50;;;8.20;99.90;;;;;;4971259;28;20030;-86
2024/02/26 12:09:46;;;;;;;14.82;8.85;;;8.30;99.90;;;;;;4969144;28;20038;-86
2024/02/26 12:12:17;;;;;;;12.68;8.50;;;8.40;99.90;;;;;;4968718;28;20442;-86
2024/02/26 12:14:53;;;;;;;10.40;7.80;;;8.40;99.90;;;;;;4984974;28;20023;-86
2024/02/26 12:17:23;;;;;;;11.52;6.93;;;8.50;99.90;;;;;;4984321;28;20030;-86
2024/02/26 12:19:49;;;;;;;10.70;7.50;;;8.50;99.90;;;;;;4972333;28;20480;-86
2024/02/26 12:22:15;;;;;;;10.43;7.88;;;8.60;99.90;;;;;;4968913;28;20033;-86
2024/02/26 12:24:44;;;;;;;12.90;7.35;;;8.60;99.90;;;;;;4986712;28;20510;-87
2024/02/26 12:27:09;;;;;;;13.77;8.93;;;8.50;99.90;;;;;;4986329;28;20060;-86
2024/02/26 12:29:35;;;;;;;15.55;8.77;;;8.50;99.90;;;;;;4969935;28;20446;-86
2024/02/26 12:32:01;;;;;;;11.75;8.27;;;8.50;99.90;;;;;;4984592;28;20030;-85
2024/02/26 12:34:27;;;;;;;11.25;7.63;;;8.60;99.90;;;;;;4973547;28;20465;-88
2024/02/26 12:36:54;;;;;;;11.38;7.72;;;8.60;99.90;;;;;;4956063;28;20037;-88
2024/02/26 12:39:20;;;;;;;12.00;8.68;;;8.50;99.90;;;;;;4967710;28;20104;-87
2024/02/26 12:41:49;;;;;;;12.73;8.13;;;8.50;99.90;;;;;;4970590;28;20026;-87
2024/02/26 12:44:18;;;;;;;9.52;6.57;;;8.70;99.90;;;;;;4979429;28;20054;-86
2024/02/26 12:46:44;;;;;;;10.13;7.10;;;8.60;99.90;;;;;;4970191;28;20411;-87
2024/02/26 12:49:14;;;;;;;9.80;7.05;;;8.60;99.90;;;;;;4967514;28;20076;-86
2024/02/26 12:51:45;;;;;;;9.68;6.85;;;8.60;99.90;;;;;;4951048;28;20045;-80